Portada
METAR-TAF:

METAR-TAF

Aeroports :

Kaixan, Iran

latitud: 33-59N, longitud: 051-27E, altitud: 982 m

Observació

L'informe es va fer fa 1 hora i 21 minuts, a les 23:00 UTC
Vent 10 kt del Est
Temperatura 33°C
Humitat 8%
Pressió 1003 hPa

METAR: OIFK 162300Z AUTO 09010KT //// // ////// 33/M05 Q1003

Hora: 04:51 (00:21 UTC)


TAF: manca

Observacions i pronòstics meteorològics de més de 4000 aeroports (METAR i TAF).

Les estacions disponibles són els punts grocs i vermells al mapa.

Posi el ratolí al punt desitjat per veure el nom de l'estació.

Feu clic per veure les observacions i els pronòstics meteorològics.

Per canviar el mapa: feu clic els botons verds amb una creu de color negre per apropar; al botó verd amb un guió per allunyar la imatge; o en les fletxes verdes per a mapes adjacents.


METAR-TAF: